^^
Meteo Knjazevac Station Historical Data
Daily Summary for May 23, 2021 Units:  Metric    English   Both
Daily Weekly Monthly Yearly Custom
  High: Low: Average:
Temperature: 11 °C 6.7 °C 8.9 °C
Dew Point: 9 °C 5.9 °C 8 °C
Humidity: 99% 85% 94%
Wind Speed: 11.3km/h 0km/h 3.4km/h
Wind Gust: 20.9km/h - -
Wind- - WSW
Pressure: 1023.9 hPa 1022.2 hPa -
Precipitation: 0 mm    
Historical Graphs
 
 
Tabular Data for May 23, 2021
Time Temperature Dew Point Pressure Wind Wind Speed Wind Gust Humidity Rainfall Rate (Hourly) solar Conditions
00:00 9.5 °C 8.6 °C 1022.6 hPa SW 9.7 km/h 14.5 km/h 94% 0 mm 0 W/m2
00:10 9.5 °C 8.6 °C 1022.2 hPa SW 9.7 km/h 17.7 km/h 94% 0 mm 0 W/m2
00:20 9.5 °C 8.6 °C 1022.2 hPa SW 4.8 km/h 16.1 km/h 94% 0 mm 0 W/m2
00:30 9.5 °C 8.6 °C 1022.2 hPa SW 8 km/h 12.9 km/h 94% 0 mm 0 W/m2
00:40 9.5 °C 8.6 °C 1022.2 hPa SW 9.7 km/h 12.9 km/h 94% 0 mm 0 W/m2
00:50 9.5 °C 8.6 °C 1022.2 hPa SW 4.8 km/h 11.3 km/h 94% 0 mm 0 W/m2
01:00 9.6 °C 8.5 °C 1022.2 hPa SW 8 km/h 12.9 km/h 93% 0 mm 0 W/m2
01:10 9.6 °C 8.5 °C 1022.2 hPa SW 3.2 km/h 11.3 km/h 93% 0 mm 0 W/m2
01:20 9.6 °C 8.5 °C 1022.2 hPa WSW 1.6 km/h 4.8 km/h 93% 0 mm 0 W/m2
01:30 9.7 °C 8.8 °C 1022.2 hPa Calm   4.8 km/h 94% 0 mm 0 W/m2
01:40 9.7 °C 8.6 °C 1022.2 hPa SSW 4.8 km/h 8 km/h 93% 0 mm 0 W/m2
01:50 9.8 °C 8.7 °C 1022.2 hPa WSW 3.2 km/h 8 km/h 93% 0 mm 0 W/m2
02:00 9.8 °C 8.7 °C 1022.2 hPa WSW 1.6 km/h 4.8 km/h 93% 0 mm 0 W/m2
02:10 9.9 °C 8.8 °C 1022.2 hPa Calm   4.8 km/h 93% 0 mm 0 W/m2
02:20 9.9 °C 8.8 °C 1022.2 hPa WSW 4.8 km/h 8 km/h 93% 0 mm 0 W/m2
02:30 9.9 °C 8.8 °C 1022.2 hPa SW 1.6 km/h 8 km/h 93% 0 mm 0 W/m2
02:40 9.9 °C 9 °C 1022.2 hPa ESE 3.2 km/h 6.4 km/h 94% 0 mm 0 W/m2
02:50 9.8 °C 8.9 °C 1022.2 hPa Calm   6.4 km/h 94% 0 mm 0 W/m2
03:00 9.8 °C 8.9 °C 1022.2 hPa South 3.2 km/h 3.2 km/h 94% 0 mm 0 W/m2
03:10 9.8 °C 8.9 °C 1022.2 hPa NW 1.6 km/h 3.2 km/h 94% 0 mm 0 W/m2
03:20 9.8 °C 8.9 °C 1022.2 hPa Calm   3.2 km/h 94% 0 mm 0 W/m2
03:30 9.8 °C 8.9 °C 1022.2 hPa WSW 1.6 km/h 4.8 km/h 94% 0 mm 0 W/m2
03:40 9.7 °C 8.8 °C 1022.2 hPa SW 3.2 km/h 4.8 km/h 94% 0 mm 0 W/m2
03:50 9.6 °C 8.7 °C 1022.2 hPa Calm   4.8 km/h 94% 0 mm 0 W/m2
04:00 9.5 °C 8.7 °C 1022.2 hPa Calm   3.2 km/h 95% 0 mm 0 W/m2
04:10 9.5 °C 8.6 °C 1022.2 hPa SW 1.6 km/h 8 km/h 94% 0 mm 0 W/m2
04:20 9.3 °C 8.4 °C 1022.2 hPa West 3.2 km/h 4.8 km/h 94% 0 mm 0 W/m2
04:30 9.3 °C 8.4 °C 1022.2 hPa West 3.2 km/h 6.4 km/h 94% 0 mm 0 W/m2
04:40 9.2 °C 8.3 °C 1022.2 hPa NW 1.6 km/h 3.2 km/h 94% 0 mm 0 W/m2
04:50 9.1 °C 8.2 °C 1022.2 hPa West 3.2 km/h 4.8 km/h 94% 0 mm 0 W/m2
05:00 8.8 °C 7.9 °C 1022.2 hPa West 4.8 km/h 9.7 km/h 94% 0 mm 0 W/m2
05:10 8.7 °C 7.9 °C 1022.2 hPa West 4.8 km/h 9.7 km/h 95% 0 mm 0 W/m2
05:20 8.7 °C 7.9 °C 1022.2 hPa West 4.8 km/h 8 km/h 95% 0 mm 0 W/m2
05:30 8.6 °C 7.9 °C 1022.2 hPa WSW 3.2 km/h 8 km/h 95% 0 mm 0 W/m2
05:40 8.4 °C 7.5 °C 1022.2 hPa West 4.8 km/h 9.7 km/h 94% 0 mm 0 W/m2
05:50 8.1 °C 7.3 °C 1022.2 hPa West 4.8 km/h 8 km/h 95% 0 mm 0 W/m2
06:00 8 °C 7.2 °C 1022.6 hPa West 3.2 km/h 8 km/h 95% 0 mm 0 W/m2
06:10 7.9 °C 7.2 °C 1022.6 hPa Calm   4.8 km/h 95% 0 mm 0 W/m2
06:20 7.7 °C 6.8 °C 1022.9 hPa WNW 1.6 km/h 1.6 km/h 94% 0 mm 4 W/m2
06:30 7.6 °C 6.7 °C 1022.9 hPa WSW 1.6 km/h 4.8 km/h 94% 0 mm 11 W/m2
06:40 7.3 °C 6.6 °C 1022.9 hPa West 1.6 km/h 3.2 km/h 95% 0 mm 19 W/m2
06:50 7.2 °C 6.4 °C 1023.2 hPa West 3.2 km/h 4.8 km/h 95% 0 mm 28 W/m2
07:00 7 °C 6.3 °C 1023.2 hPa WSW 1.6 km/h 4.8 km/h 95% 0 mm 36 W/m2
07:10 6.8 °C 6.1 °C 1023.2 hPa WSW 1.6 km/h 3.2 km/h 95% 0 mm 48 W/m2
07:20 6.7 °C 5.9 °C 1023.6 hPa West 1.6 km/h 3.2 km/h 95% 0 mm 72 W/m2
07:30 6.7 °C 6.1 °C 1023.6 hPa WSW 1.6 km/h 4.8 km/h 96% 0 mm 129 W/m2
07:40 6.7 °C 6.1 °C 1023.6 hPa WNW 1.6 km/h 3.2 km/h 96% 0 mm 133 W/m2
07:50 6.9 °C 6.6 °C 1023.9 hPa NNW 1.6 km/h 3.2 km/h 98% 0 mm 188 W/m2
08:00 7.1 °C 6.9 °C 1023.6 hPa NNE 1.6 km/h 4.8 km/h 99% 0 mm 227 W/m2
08:10 7.5 °C 7.3 °C 1023.9 hPa Calm   4.8 km/h 99% 0 mm 262 W/m2
08:20 8.1 °C 7.8 °C 1023.9 hPa WSW 3.2 km/h 9.7 km/h 98% 0 mm 298 W/m2
08:30 9.2 °C 8.1 °C 1023.9 hPa WSW 11.3 km/h 20.9 km/h 93% 0 mm 336 W/m2
08:40 10.2 °C 8.4 °C 1023.9 hPa West 9.7 km/h 16.1 km/h 89% 0 mm 365 W/m2
08:50 11 °C 8.6 °C 1023.6 hPa West 4.8 km/h 16.1 km/h 85% 0 mm 394 W/m2
Knjazevac, Serbia
Compliments of Weather Underground - 2 mb